createdAt,value
2018-03-25T00:00:13.934Z,15.60
2018-03-25T00:02:41.409Z,15.60
2018-03-25T00:05:08.866Z,14.60
2018-03-25T00:07:36.365Z,15.13
2018-03-25T00:10:04.589Z,14.70
2018-03-25T00:12:32.058Z,15.00
2018-03-25T00:14:59.537Z,15.53
2018-03-25T00:17:26.997Z,15.47
2018-03-25T00:19:54.477Z,14.90
2018-03-25T00:22:22.710Z,15.20
2018-03-25T00:24:50.189Z,15.10
2018-03-25T00:27:17.677Z,15.90
2018-03-25T00:29:45.176Z,15.47
2018-03-25T00:32:12.629Z,15.47
2018-03-25T00:34:40.121Z,15.50
2018-03-25T00:37:07.589Z,14.83
2018-03-25T00:39:35.295Z,14.80
2018-03-25T00:42:02.753Z,15.03
2018-03-25T00:44:30.234Z,15.67
2018-03-25T00:46:57.685Z,16.27
2018-03-25T00:49:25.172Z,16.70
2018-03-25T00:51:52.632Z,16.60
2018-03-25T00:54:20.077Z,16.23
2018-03-25T00:56:47.567Z,15.67
2018-03-25T00:59:15.803Z,16.30
2018-03-25T01:01:43.273Z,17.20
2018-03-25T01:04:10.747Z,16.40
2018-03-25T01:06:38.243Z,17.40
2018-03-25T01:09:05.702Z,15.87
2018-03-25T01:11:33.194Z,15.53
2018-03-25T01:14:00.643Z,16.27
2018-03-25T01:16:28.097Z,16.77
2018-03-25T01:18:55.572Z,16.63
2018-03-25T01:21:23.030Z,17.23
2018-03-25T01:23:50.510Z,16.53
2018-03-25T01:26:17.970Z,17.07
2018-03-25T01:28:46.221Z,17.40
2018-03-25T01:31:13.678Z,17.40
2018-03-25T01:33:41.170Z,17.87
2018-03-25T01:36:09.394Z,17.67
2018-03-25T01:38:36.880Z,17.90
2018-03-25T01:41:04.334Z,17.93
2018-03-25T01:43:31.786Z,17.87
2018-03-25T01:45:59.268Z,17.37
2018-03-25T01:48:27.680Z,17.83
2018-03-25T01:50:55.153Z,18.63
2018-03-25T01:53:22.641Z,17.57
2018-03-25T01:55:50.094Z,18.17
2018-03-25T01:58:17.577Z,17.47
2018-03-25T02:00:45.809Z,17.70
2018-03-25T02:03:13.288Z,18.17
2018-03-25T02:05:40.750Z,17.73
2018-03-25T02:08:08.237Z,18.63
2018-03-25T02:10:35.718Z,18.67
2018-03-25T02:13:03.155Z,19.30
2018-03-25T02:15:30.692Z,18.03
2018-03-25T02:17:58.924Z,17.87
2018-03-25T02:20:26.569Z,19.23
2018-03-25T02:22:54.030Z,18.43
2018-03-25T02:25:21.511Z,19.10
2018-03-25T02:27:48.957Z,19.83
2018-03-25T02:30:16.450Z,19.83
2018-03-25T02:32:43.906Z,18.43
2018-03-25T02:35:11.416Z,18.50
2018-03-25T02:37:38.981Z,18.53
2018-03-25T02:40:06.447Z,19.60
2018-03-25T02:42:33.930Z,19.13
2018-03-25T02:45:02.188Z,19.20
2018-03-25T02:47:29.639Z,19.37
2018-03-25T02:49:57.176Z,20.57
2018-03-25T02:52:24.591Z,19.10
2018-03-25T02:54:52.046Z,19.47
2018-03-25T02:57:19.527Z,19.57
2018-03-25T02:59:47.759Z,19.40
2018-03-25T03:02:15.219Z,19.57
2018-03-25T03:04:42.686Z,19.50
2018-03-25T03:07:10.134Z,19.40
2018-03-25T03:09:37.608Z,20.20
2018-03-25T03:12:05.059Z,19.50
2018-03-25T03:14:32.490Z,20.70
2018-03-25T03:16:59.964Z,19.37
2018-03-25T03:19:27.419Z,19.73
2018-03-25T03:21:54.891Z,20.03
2018-03-25T03:24:22.334Z,20.17
2018-03-25T03:26:49.795Z,20.60
2018-03-25T03:29:17.268Z,20.10
2018-03-25T03:31:44.721Z,21.17
2018-03-25T03:34:12.958Z,20.67
2018-03-25T03:36:40.404Z,20.00
2018-03-25T03:39:07.873Z,21.50
2018-03-25T03:41:35.342Z,20.77
2018-03-25T03:44:02.795Z,20.93
2018-03-25T03:46:30.255Z,21.03
2018-03-25T03:48:57.723Z,20.67
2018-03-25T03:51:25.182Z,21.07
2018-03-25T03:53:52.627Z,20.83
2018-03-25T03:56:20.125Z,21.50
2018-03-25T03:58:48.291Z,21.40
2018-03-25T04:01:15.793Z,21.10
2018-03-25T04:03:43.219Z,21.50
2018-03-25T04:06:11.438Z,22.17
2018-03-25T04:08:38.893Z,21.47
2018-03-25T04:11:06.351Z,22.17
2018-03-25T04:13:33.818Z,23.20
2018-03-25T04:16:01.292Z,22.60
2018-03-25T04:18:28.726Z,22.50
2018-03-25T04:20:56.188Z,22.90
2018-03-25T04:23:23.664Z,23.37
2018-03-25T04:25:51.119Z,22.37
2018-03-25T04:28:18.574Z,24.00
2018-03-25T04:30:46.059Z,22.17
2018-03-25T04:33:13.490Z,23.70
2018-03-25T04:35:40.938Z,22.93
2018-03-25T04:38:08.414Z,22.43
2018-03-25T04:40:35.871Z,23.50
2018-03-25T04:43:03.334Z,22.43
2018-03-25T04:45:30.801Z,22.90
2018-03-25T04:47:58.243Z,22.70
2018-03-25T04:50:25.699Z,24.20
2018-03-25T04:52:53.167Z,23.77
2018-03-25T04:55:20.615Z,23.27
2018-03-25T04:57:48.066Z,22.43
2018-03-25T05:00:15.522Z,23.53
2018-03-25T05:02:42.978Z,24.50
2018-03-25T05:05:10.434Z,24.07
2018-03-25T05:07:37.892Z,23.70
2018-03-25T05:10:05.347Z,22.90
2018-03-25T05:12:32.806Z,23.60
2018-03-25T05:15:00.272Z,22.87
2018-03-25T05:17:27.749Z,23.03
2018-03-25T05:19:55.185Z,25.13
2018-03-25T05:22:22.655Z,22.87
2018-03-25T05:24:50.102Z,23.37
2018-03-25T05:27:17.545Z,24.60
2018-03-25T05:29:45.181Z,24.57
2018-03-25T05:32:12.622Z,24.10
2018-03-25T05:34:40.091Z,24.33
2018-03-25T05:37:07.549Z,24.10
2018-03-25T05:39:35.012Z,25.87
2018-03-25T05:42:02.443Z,23.80
2018-03-25T05:44:29.878Z,24.27
2018-03-25T05:46:57.340Z,23.73
2018-03-25T05:49:25.572Z,22.60
2018-03-25T05:51:53.026Z,24.57
2018-03-25T05:54:20.495Z,23.97
2018-03-25T05:56:47.953Z,22.87
2018-03-25T05:59:15.409Z,25.47
2018-03-25T06:01:42.867Z,24.73
2018-03-25T06:04:10.310Z,24.83
2018-03-25T06:06:37.859Z,25.07
2018-03-25T06:09:05.291Z,24.70
2018-03-25T06:11:32.841Z,25.20
2018-03-25T06:14:00.287Z,25.83
2018-03-25T06:16:27.724Z,26.80
2018-03-25T06:18:55.197Z,25.40
2018-03-25T06:21:22.628Z,26.17
2018-03-25T06:23:50.083Z,26.03
2018-03-25T06:26:17.551Z,25.67
2018-03-25T06:28:44.994Z,27.20
2018-03-25T06:31:12.466Z,26.60
2018-03-25T06:33:39.941Z,25.30
2018-03-25T06:36:07.369Z,26.73
2018-03-25T06:38:34.823Z,26.67
2018-03-25T06:41:02.271Z,26.90
2018-03-25T06:43:29.937Z,27.53
2018-03-25T06:45:57.380Z,28.50
2018-03-25T06:48:24.852Z,27.57
2018-03-25T06:50:52.342Z,27.20
2018-03-25T06:53:20.683Z,28.83
2018-03-25T06:55:48.133Z,27.13
2018-03-25T06:58:15.993Z,29.17
2018-03-25T07:00:43.579Z,28.13
2018-03-25T07:03:11.022Z,28.20
2018-03-25T07:05:38.587Z,28.30
2018-03-25T07:08:06.142Z,32.33
2018-03-25T07:10:33.693Z,28.93
2018-03-25T07:13:01.183Z,30.27
2018-03-25T07:15:29.434Z,31.53
2018-03-25T07:17:56.998Z,30.07
2018-03-25T07:20:24.471Z,30.27
2018-03-25T07:22:51.928Z,31.87
2018-03-25T07:25:19.370Z,31.77
2018-03-25T07:27:46.851Z,31.07
2018-03-25T07:30:14.310Z,31.40
2018-03-25T07:32:41.742Z,31.20
2018-03-25T07:35:09.222Z,31.90
2018-03-25T07:37:36.729Z,30.43
2018-03-25T07:40:04.158Z,31.57
2018-03-25T07:42:32.378Z,30.93
2018-03-25T07:45:00.586Z,30.50
2018-03-25T07:47:28.051Z,30.40
2018-03-25T07:49:56.298Z,29.87
2018-03-25T07:52:23.723Z,28.90
2018-03-25T07:54:51.251Z,29.57
2018-03-25T07:57:18.678Z,29.67
2018-03-25T07:59:46.136Z,29.27
2018-03-25T08:02:13.602Z,29.40
2018-03-25T08:04:41.063Z,27.20
2018-03-25T08:07:08.522Z,28.03
2018-03-25T08:09:35.980Z,27.20
2018-03-25T08:12:03.424Z,28.07
2018-03-25T08:14:30.895Z,29.00
2018-03-25T08:16:58.331Z,26.67
2018-03-25T08:19:25.778Z,28.53
2018-03-25T08:21:53.231Z,27.07
2018-03-25T08:24:20.694Z,24.83
2018-03-25T08:26:48.179Z,25.43
2018-03-25T08:29:15.643Z,25.90
2018-03-25T08:31:43.111Z,24.80
2018-03-25T08:34:10.548Z,25.00
2018-03-25T08:36:37.995Z,23.70
2018-03-25T08:39:05.451Z,23.20
2018-03-25T08:41:32.898Z,25.17
2018-03-25T08:44:00.355Z,24.53
2018-03-25T08:46:27.816Z,23.80
2018-03-25T08:48:55.274Z,22.60
2018-03-25T08:51:22.719Z,25.50
2018-03-25T08:53:50.194Z,23.97
2018-03-25T08:56:17.632Z,24.07
2018-03-25T08:58:45.083Z,23.67
2018-03-25T09:01:12.548Z,21.53
2018-03-25T09:03:40.027Z,22.73
2018-03-25T09:06:07.483Z,21.23
2018-03-25T09:08:34.954Z,21.77
2018-03-25T09:11:02.411Z,20.77
2018-03-25T09:13:29.855Z,20.60
2018-03-25T09:15:57.302Z,19.03
2018-03-25T09:18:24.745Z,19.57
2018-03-25T09:20:52.220Z,18.73
2018-03-25T09:23:19.665Z,19.23
2018-03-25T09:25:47.139Z,19.63
2018-03-25T09:28:14.590Z,18.47
2018-03-25T09:30:42.062Z,18.53
2018-03-25T09:33:09.507Z,18.07
2018-03-25T09:35:36.978Z,17.30
2018-03-25T09:38:04.433Z,17.30
2018-03-25T09:40:31.898Z,17.63
2018-03-25T09:42:59.381Z,17.70
2018-03-25T09:45:27.626Z,18.00
2018-03-25T09:47:55.078Z,18.33
2018-03-25T09:50:22.538Z,17.13
2018-03-25T09:52:49.995Z,17.43
2018-03-25T09:55:17.451Z,16.43
2018-03-25T09:57:44.906Z,17.33
2018-03-25T10:00:12.382Z,16.87
2018-03-25T10:02:41.627Z,16.67
2018-03-25T10:05:09.081Z,16.93
2018-03-25T10:07:36.553Z,16.37
2018-03-25T10:10:04.025Z,16.77
2018-03-25T10:12:31.509Z,14.87
2018-03-25T10:14:59.779Z,15.67
2018-03-25T10:17:27.237Z,14.77
2018-03-25T10:19:54.742Z,16.30
2018-03-25T10:22:22.253Z,16.20
2018-03-25T10:24:49.711Z,16.53
2018-03-25T10:27:17.194Z,16.47
2018-03-25T10:29:45.428Z,16.30
2018-03-25T10:32:12.888Z,16.20
2018-03-25T10:34:40.354Z,15.80
2018-03-25T10:37:07.810Z,14.87
2018-03-25T10:39:35.290Z,14.40
2018-03-25T10:42:03.486Z,15.87
2018-03-25T10:44:30.943Z,15.47
2018-03-25T10:46:58.436Z,14.43
2018-03-25T10:49:25.891Z,15.43
2018-03-25T10:51:53.347Z,14.23
2018-03-25T10:54:20.819Z,15.77
2018-03-25T10:56:48.278Z,15.93
2018-03-25T10:59:15.790Z,15.97
2018-03-25T11:01:43.243Z,14.67
2018-03-25T11:04:11.599Z,15.07
2018-03-25T11:06:39.814Z,13.93
2018-03-25T11:09:07.314Z,14.27
2018-03-25T11:11:34.799Z,14.17
2018-03-25T11:14:03.008Z,14.20
2018-03-25T11:16:30.523Z,14.50
2018-03-25T11:18:57.966Z,15.03
2018-03-25T11:21:25.446Z,15.03
2018-03-25T11:23:53.651Z,14.03
2018-03-25T11:26:21.124Z,13.60
2018-03-25T11:28:48.587Z,14.43
2018-03-25T11:31:16.070Z,15.43
2018-03-25T11:33:43.530Z,14.40
2018-03-25T11:36:10.987Z,14.63
2018-03-25T11:38:38.490Z,14.33
2018-03-25T11:41:05.976Z,14.13
2018-03-25T11:43:33.434Z,15.23
2018-03-25T11:46:00.919Z,14.83
2018-03-25T11:48:28.357Z,14.10
2018-03-25T11:50:55.831Z,15.73
2018-03-25T11:53:23.276Z,14.53
2018-03-25T11:55:50.748Z,14.50
2018-03-25T11:58:18.191Z,15.03
2018-03-25T12:00:45.663Z,14.60
2018-03-25T12:03:13.108Z,14.63
2018-03-25T12:05:40.574Z,15.40
2018-03-25T12:08:08.021Z,15.83
2018-03-25T12:10:35.487Z,16.50
2018-03-25T12:13:03.004Z,16.63
2018-03-25T12:15:30.566Z,16.83
2018-03-25T12:17:58.123Z,16.63
2018-03-25T12:20:25.608Z,15.90
2018-03-25T12:22:53.018Z,16.57
2018-03-25T12:25:20.471Z,16.50
2018-03-25T12:27:48.702Z,16.93
2018-03-25T12:30:16.168Z,16.50
2018-03-25T12:32:43.651Z,14.73
2018-03-25T12:35:11.883Z,15.33
2018-03-25T12:37:39.354Z,14.47
2018-03-25T12:40:06.874Z,15.17
2018-03-25T12:42:34.348Z,16.03
2018-03-25T12:45:01.799Z,15.13
2018-03-25T12:47:29.291Z,15.87
2018-03-25T12:49:56.832Z,15.63
2018-03-25T12:52:24.309Z,15.40
2018-03-25T12:54:51.763Z,16.53
2018-03-25T12:57:19.214Z,16.63
2018-03-25T12:59:46.695Z,15.73
2018-03-25T13:02:14.180Z,15.77
2018-03-25T13:04:41.782Z,16.43
2018-03-25T13:07:09.219Z,14.97
2018-03-25T13:09:36.700Z,14.83
2018-03-25T13:12:04.159Z,14.77
2018-03-25T13:14:31.630Z,14.90
2018-03-25T13:16:59.088Z,15.10
2018-03-25T13:19:26.532Z,14.17
2018-03-25T13:21:54.001Z,15.53
2018-03-25T13:24:21.448Z,14.77
2018-03-25T13:26:48.915Z,14.93
2018-03-25T13:29:16.362Z,16.50
2018-03-25T13:31:43.831Z,15.67
2018-03-25T13:34:11.278Z,15.20
2018-03-25T13:36:38.750Z,15.87
2018-03-25T13:39:07.031Z,15.33
2018-03-25T13:41:35.251Z,16.40
2018-03-25T13:44:02.703Z,16.07
2018-03-25T13:46:30.196Z,15.30
2018-03-25T13:48:57.667Z,16.20
2018-03-25T13:51:25.115Z,16.57
2018-03-25T13:53:52.620Z,15.60
2018-03-25T13:56:20.039Z,16.13
2018-03-25T13:58:47.510Z,17.13
2018-03-25T14:01:15.716Z,15.73
2018-03-25T14:03:43.171Z,15.93
2018-03-25T14:06:10.640Z,16.50
2018-03-25T14:08:38.112Z,17.17
2018-03-25T14:11:06.319Z,17.70
2018-03-25T14:13:33.782Z,18.47
2018-03-25T14:16:01.255Z,17.73
2018-03-25T14:18:29.461Z,18.17
2018-03-25T14:20:57.746Z,18.63
2018-03-25T14:23:25.291Z,17.27
2018-03-25T14:25:52.783Z,17.20
2018-03-25T14:28:20.243Z,17.83
2018-03-25T14:30:47.723Z,17.83
2018-03-25T14:33:15.951Z,17.40
2018-03-25T14:35:43.391Z,17.47
2018-03-25T14:38:10.860Z,17.80
2018-03-25T14:40:38.375Z,18.70
2018-03-25T14:43:07.314Z,18.10
2018-03-25T14:45:34.796Z,18.00
2018-03-25T14:48:02.308Z,18.23
2018-03-25T14:50:29.734Z,18.33
2018-03-25T14:52:57.238Z,18.70
2018-03-25T14:55:24.701Z,18.70
2018-03-25T14:57:52.130Z,19.37
2018-03-25T15:00:20.373Z,19.63
2018-03-25T15:02:47.837Z,19.33
2018-03-25T15:05:15.335Z,19.60
2018-03-25T15:07:42.756Z,20.27
2018-03-25T15:10:10.211Z,19.77
2018-03-25T15:12:37.670Z,21.20
2018-03-25T15:15:05.183Z,18.63
2018-03-25T15:17:32.638Z,18.83
2018-03-25T15:20:00.067Z,20.27
2018-03-25T15:22:28.298Z,20.03
2018-03-25T15:24:55.769Z,19.50
2018-03-25T15:27:23.227Z,19.90
2018-03-25T15:29:50.698Z,20.03
2018-03-25T15:32:18.158Z,19.73
2018-03-25T15:34:45.605Z,18.70
2018-03-25T15:37:13.074Z,19.90
2018-03-25T15:39:40.519Z,19.10
2018-03-25T15:42:07.987Z,19.33
2018-03-25T15:44:35.432Z,18.50
2018-03-25T15:47:02.879Z,18.23
2018-03-25T15:49:30.359Z,17.77
2018-03-25T15:51:57.814Z,18.67
2018-03-25T15:54:25.275Z,18.80
2018-03-25T15:56:52.755Z,18.10
2018-03-25T15:59:20.312Z,19.47
2018-03-25T16:01:48.555Z,19.57
2018-03-25T16:04:16.012Z,18.47
2018-03-25T16:06:43.467Z,18.57
2018-03-25T16:09:11.092Z,19.03
2018-03-25T16:11:38.548Z,18.97
2018-03-25T16:14:06.011Z,18.90
2018-03-25T16:16:33.438Z,18.53
2018-03-25T16:19:00.895Z,19.70
2018-03-25T16:21:28.336Z,19.63
2018-03-25T16:23:55.296Z,18.43
2018-03-25T16:26:23.532Z,19.07
2018-03-25T16:28:51.011Z,19.17
2018-03-25T16:31:18.462Z,19.80
2018-03-25T16:33:45.910Z,19.47
2018-03-25T16:36:13.432Z,20.27
2018-03-25T16:38:40.904Z,20.13
2018-03-25T16:41:08.348Z,20.17
2018-03-25T16:43:36.019Z,19.90
2018-03-25T16:46:03.891Z,20.00
2018-03-25T16:48:31.316Z,19.47
2018-03-25T16:50:59.550Z,19.57
2018-03-25T16:53:26.994Z,20.43
2018-03-25T16:55:54.492Z,20.70
2018-03-25T16:58:21.981Z,21.03
2018-03-25T17:00:49.412Z,19.97
2018-03-25T17:03:17.634Z,19.83
2018-03-25T17:05:45.087Z,20.70
2018-03-25T17:08:12.565Z,21.23
2018-03-25T17:10:40.799Z,19.83
2018-03-25T17:13:08.286Z,20.80
2018-03-25T17:15:36.232Z,20.13
2018-03-25T17:18:03.667Z,21.40
2018-03-25T17:20:31.123Z,20.53
2018-03-25T17:22:59.334Z,20.20
2018-03-25T17:25:26.791Z,20.57
2018-03-25T17:27:54.251Z,20.37
2018-03-25T17:30:21.767Z,21.27
2018-03-25T17:32:49.223Z,21.17
2018-03-25T17:35:17.442Z,21.70
2018-03-25T17:37:44.914Z,21.30
2018-03-25T17:40:12.385Z,20.37
2018-03-25T17:42:39.835Z,20.83
2018-03-25T17:45:07.287Z,21.00
2018-03-25T17:47:34.750Z,21.80
2018-03-25T17:50:02.228Z,21.07
2018-03-25T17:52:29.707Z,21.10
2018-03-25T17:54:57.153Z,21.80
2018-03-25T17:57:25.378Z,21.87
2018-03-25T17:59:52.851Z,22.33
2018-03-25T18:02:20.306Z,22.27
2018-03-25T18:04:47.767Z,22.17
2018-03-25T18:07:15.238Z,21.70
2018-03-25T18:09:42.722Z,23.83
2018-03-25T18:12:10.962Z,23.70
2018-03-25T18:14:38.457Z,23.47
2018-03-25T18:17:06.657Z,23.40
2018-03-25T18:19:34.125Z,22.83
2018-03-25T18:22:01.593Z,23.27
2018-03-25T18:24:29.066Z,25.83
2018-03-25T18:26:56.483Z,24.83
2018-03-25T18:29:23.971Z,24.50
2018-03-25T18:31:51.442Z,25.83
2018-03-25T18:34:19.707Z,24.67
2018-03-25T18:36:47.149Z,24.37
2018-03-25T18:39:14.612Z,23.07
2018-03-25T18:41:50.767Z,24.87
2018-03-25T18:44:18.246Z,24.63
2018-03-25T18:46:45.711Z,23.63
2018-03-25T18:49:13.180Z,24.20
2018-03-25T18:51:40.622Z,23.93
2018-03-25T18:54:08.094Z,26.00
2018-03-25T18:56:35.523Z,24.00
2018-03-25T18:59:02.991Z,24.13
2018-03-25T19:01:30.439Z,24.30
2018-03-25T19:03:57.895Z,24.13
2018-03-25T19:06:25.394Z,23.83
2018-03-25T19:08:52.819Z,25.93
2018-03-25T19:11:20.305Z,24.97
2018-03-25T19:13:47.755Z,26.10
2018-03-25T19:16:15.227Z,25.70
2018-03-25T19:18:42.669Z,25.13
2018-03-25T19:21:10.270Z,25.83
2018-03-25T19:23:37.702Z,25.50
2018-03-25T19:26:05.176Z,26.20
2018-03-25T19:28:32.613Z,26.33
2018-03-25T19:31:00.055Z,26.03
2018-03-25T19:33:27.528Z,26.07
2018-03-25T19:35:54.967Z,26.70
2018-03-25T19:38:22.443Z,27.27
2018-03-25T19:40:49.955Z,27.27
2018-03-25T19:43:17.394Z,26.53
2018-03-25T19:45:45.477Z,27.73
2018-03-25T19:48:12.992Z,27.07
2018-03-25T19:50:40.430Z,28.33
2018-03-25T19:53:07.894Z,27.50
2018-03-25T19:55:35.330Z,27.77
2018-03-25T19:58:02.791Z,29.23
2018-03-25T20:00:30.254Z,29.30
2018-03-25T20:02:57.726Z,29.33
2018-03-25T20:05:25.174Z,28.50
2018-03-25T20:07:52.635Z,28.53
2018-03-25T20:10:20.091Z,28.87
2018-03-25T20:12:47.558Z,29.30
2018-03-25T20:15:14.987Z,29.57
2018-03-25T20:17:42.455Z,28.93
2018-03-25T20:20:09.902Z,31.37
2018-03-25T20:22:37.359Z,30.37
2018-03-25T20:25:04.804Z,31.20
2018-03-25T20:27:32.262Z,31.03
2018-03-25T20:29:59.822Z,31.13
2018-03-25T20:32:27.264Z,31.17
2018-03-25T20:34:54.694Z,33.13
2018-03-25T20:37:22.930Z,33.63
2018-03-25T20:39:50.381Z,31.30
2018-03-25T20:42:17.825Z,33.30
2018-03-25T20:44:45.304Z,35.07
2018-03-25T20:47:12.759Z,32.77
2018-03-25T20:49:40.226Z,30.93
2018-03-25T20:52:07.708Z,33.63
2018-03-25T20:54:35.178Z,34.57
2018-03-25T20:57:02.616Z,33.90
2018-03-25T20:59:30.081Z,36.60
2018-03-25T21:01:57.532Z,33.47
2018-03-25T21:04:25.087Z,33.37
2018-03-25T21:06:52.549Z,34.63
2018-03-25T21:09:20.010Z,34.40
2018-03-25T21:11:48.227Z,36.53
2018-03-25T21:14:15.685Z,35.50
2018-03-25T21:16:43.142Z,38.40
2018-03-25T21:19:10.606Z,36.67
2018-03-25T21:21:38.084Z,37.77
2018-03-25T21:24:05.551Z,38.33
2018-03-25T21:26:33.027Z,39.33
2018-03-25T21:29:00.478Z,39.63
2018-03-25T21:31:27.923Z,40.57
2018-03-25T21:33:55.417Z,41.33
2018-03-25T21:36:23.811Z,41.17
2018-03-25T21:38:51.216Z,43.00
2018-03-25T21:41:18.684Z,42.07
2018-03-25T21:43:46.156Z,43.70
2018-03-25T21:46:13.598Z,44.07
2018-03-25T21:48:41.851Z,42.53
2018-03-25T21:51:09.297Z,42.20
2018-03-25T21:53:36.771Z,43.00
2018-03-25T21:56:04.223Z,45.23
2018-03-25T21:58:31.670Z,42.77
2018-03-25T22:00:59.124Z,43.47
2018-03-25T22:03:26.589Z,43.27
2018-03-25T22:05:54.057Z,44.70
2018-03-25T22:08:21.537Z,44.53
2018-03-25T22:10:48.995Z,43.90
2018-03-25T22:13:16.423Z,45.03
2018-03-25T22:15:43.882Z,44.47
2018-03-25T22:18:11.367Z,46.80
2018-03-25T22:20:38.830Z,45.10
2018-03-25T22:23:06.271Z,45.43
2018-03-25T22:25:33.735Z,45.03
2018-03-25T22:28:01.174Z,44.60
2018-03-25T22:30:28.682Z,43.93
2018-03-25T22:32:56.116Z,44.87
2018-03-25T22:35:23.576Z,45.43
2018-03-25T22:37:51.020Z,44.60
2018-03-25T22:40:24.329Z,45.23
2018-03-25T22:42:51.807Z,45.97
2018-03-25T22:45:19.277Z,45.23
2018-03-25T22:47:46.736Z,46.90
2018-03-25T22:50:18.622Z,46.50
2018-03-25T22:52:48.444Z,48.57
2018-03-25T22:55:16.029Z,46.73
2018-03-25T22:57:43.539Z,46.63
2018-03-25T23:00:10.995Z,45.97
2018-03-25T23:02:38.446Z,46.17
2018-03-25T23:05:06.707Z,44.43
2018-03-25T23:07:34.147Z,45.17
2018-03-25T23:10:02.372Z,46.97
2018-03-25T23:12:29.834Z,47.17
2018-03-25T23:14:57.283Z,46.13
2018-03-25T23:17:24.752Z,45.97
2018-03-25T23:19:52.210Z,47.03
2018-03-25T23:22:19.678Z,47.73
2018-03-25T23:24:47.127Z,48.20
2018-03-25T23:27:14.590Z,48.57
2018-03-25T23:29:42.043Z,47.27
2018-03-25T23:32:09.523Z,47.60
2018-03-25T23:34:36.978Z,49.10
2018-03-25T23:37:04.436Z,47.30
2018-03-25T23:39:31.898Z,46.90
2018-03-25T23:41:59.368Z,47.50
2018-03-25T23:44:26.824Z,46.87
2018-03-25T23:46:54.282Z,47.63
2018-03-25T23:49:21.747Z,50.30
2018-03-25T23:51:49.195Z,50.53
2018-03-25T23:54:16.652Z,49.70
2018-03-25T23:56:44.130Z,50.77
2018-03-25T23:59:11.578Z,51.10
